createdAt,value
2018-04-11T00:01:11.691Z,17.46
2018-04-11T00:03:39.259Z,17.58
2018-04-11T00:06:06.886Z,17.54
2018-04-11T00:08:34.438Z,17.36
2018-04-11T00:11:02.003Z,17.11
2018-04-11T00:13:29.793Z,16.77
2018-04-11T00:15:57.366Z,16.48
2018-04-11T00:18:24.920Z,16.49
2018-04-11T00:20:52.535Z,16.72
2018-04-11T00:23:20.095Z,17.03
2018-04-11T00:25:47.706Z,17.08
2018-04-11T00:28:15.427Z,16.97
2018-04-11T00:30:43.389Z,17.16
2018-04-11T00:33:10.978Z,16.93
2018-04-11T00:35:38.586Z,16.83
2018-04-11T00:38:06.480Z,17.03
2018-04-11T00:40:34.038Z,17.08
2018-04-11T00:43:01.619Z,17.17
2018-04-11T00:45:29.487Z,16.82
2018-04-11T00:47:57.042Z,16.59
2018-04-11T00:50:25.139Z,16.53
2018-04-11T00:53:04.736Z,16.81
2018-04-11T00:55:32.845Z,17.08
2018-04-11T00:58:01.056Z,17.33
2018-04-11T01:00:28.974Z,17.50
2018-04-11T01:02:56.545Z,16.90
2018-04-11T01:05:24.476Z,16.53
2018-04-11T01:07:52.238Z,16.43
2018-04-11T01:10:19.794Z,16.27
2018-04-11T01:12:47.354Z,16.44
2018-04-11T01:15:14.960Z,16.74
2018-04-11T01:17:42.557Z,16.71
2018-04-11T01:20:10.966Z,16.62
2018-04-11T01:22:39.126Z,16.43
2018-04-11T01:25:07.503Z,16.33
2018-04-11T01:27:35.059Z,16.31
2018-04-11T01:30:03.310Z,16.34
2018-04-11T01:32:30.911Z,16.13
2018-04-11T01:34:58.483Z,16.06
2018-04-11T01:37:26.876Z,15.88
2018-04-11T01:39:54.430Z,16.05
2018-04-11T01:42:22.027Z,16.11
2018-04-11T01:44:50.103Z,15.91
2018-04-11T01:47:18.043Z,15.73
2018-04-11T01:49:45.599Z,15.74
2018-04-11T01:52:13.300Z,15.66
2018-04-11T01:54:41.542Z,15.45
2018-04-11T01:57:09.633Z,15.31
2018-04-11T01:59:37.204Z,15.47
2018-04-11T02:02:04.940Z,15.59
2018-04-11T02:04:33.008Z,15.93
2018-04-11T02:07:00.724Z,16.16
2018-04-11T02:09:28.606Z,15.87
2018-04-11T02:11:56.166Z,15.58
2018-04-11T02:14:23.874Z,15.56
2018-04-11T02:16:52.080Z,15.70
2018-04-11T02:19:19.659Z,15.60
2018-04-11T02:21:47.215Z,15.74
2018-04-11T02:24:15.063Z,16.01
2018-04-11T02:26:42.626Z,16.41
2018-04-11T02:29:10.210Z,16.56
2018-04-11T02:31:37.808Z,16.72
2018-04-11T02:34:05.970Z,16.78
2018-04-11T02:36:33.981Z,16.63
2018-04-11T02:39:01.599Z,16.32
2018-04-11T02:41:29.159Z,16.08
2018-04-11T02:43:56.755Z,15.89
2018-04-11T02:46:24.310Z,15.66
2018-04-11T02:48:52.773Z,15.46
2018-04-11T02:51:20.327Z,15.34
2018-04-11T02:53:47.939Z,15.30
2018-04-11T02:56:16.061Z,15.32
2018-04-11T02:58:43.621Z,15.45
2018-04-11T03:01:11.279Z,15.76
2018-04-11T03:03:39.163Z,16.07
2018-04-11T03:06:06.770Z,16.08
2018-04-11T03:08:34.915Z,16.09
2018-04-11T03:11:02.482Z,15.87
2018-04-11T03:13:30.055Z,15.56
2018-04-11T03:15:57.963Z,15.63
2018-04-11T03:18:25.526Z,15.74
2018-04-11T03:20:53.394Z,15.56
2018-04-11T03:23:20.947Z,15.45
2018-04-11T03:25:48.863Z,15.43
2018-04-11T03:28:16.714Z,15.58
2018-04-11T03:30:44.323Z,15.78
2018-04-11T03:33:11.939Z,15.96
2018-04-11T03:35:39.546Z,16.17
2018-04-11T03:38:07.174Z,16.11
2018-04-11T03:40:34.744Z,16.02
2018-04-11T03:43:03.155Z,16.38
2018-04-11T03:45:30.775Z,16.69
2018-04-11T03:47:58.768Z,16.93
2018-04-11T03:50:26.657Z,16.85
2018-04-11T03:52:54.278Z,16.83
2018-04-11T03:55:21.831Z,16.76
2018-04-11T03:57:49.803Z,16.87
2018-04-11T04:00:17.411Z,16.77
2018-04-11T04:02:45.485Z,16.51
2018-04-11T04:05:13.685Z,16.33
2018-04-11T04:07:41.236Z,16.44
2018-04-11T04:10:09.282Z,16.22
2018-04-11T04:12:36.858Z,15.85
2018-04-11T04:18:26.143Z,15.16
2018-04-11T04:20:53.762Z,15.23
2018-04-11T04:23:21.310Z,15.66
2018-04-11T04:25:48.881Z,15.90
2018-04-11T04:28:16.811Z,16.03
2018-04-11T04:30:44.578Z,16.35
2018-04-11T04:33:12.149Z,16.59
2018-04-11T04:35:40.248Z,16.12
2018-04-11T04:38:08.339Z,15.68
2018-04-11T04:40:36.006Z,15.61
2018-04-11T04:43:03.593Z,15.22
2018-04-11T04:45:31.183Z,15.09
2018-04-11T04:47:58.725Z,15.15
2018-04-11T04:50:26.322Z,15.21
2018-04-11T04:52:54.164Z,15.18
2018-04-11T04:55:21.720Z,15.50
2018-04-11T04:57:49.290Z,15.90
2018-04-11T05:00:16.974Z,16.12
2018-04-11T05:02:45.001Z,16.01
2018-04-11T05:05:13.277Z,15.98
2018-04-11T05:07:40.876Z,16.16
2018-04-11T05:10:08.808Z,16.37
2018-04-11T05:12:36.415Z,16.08
2018-04-11T05:15:03.992Z,16.35
2018-04-11T05:17:31.680Z,16.19
2018-04-11T05:19:59.708Z,16.18
2018-04-11T05:22:27.258Z,15.90
2018-04-11T05:24:54.926Z,15.80
2018-04-11T05:27:22.805Z,16.04
2018-04-11T05:29:50.622Z,16.08
2018-04-11T05:32:18.270Z,16.14
2018-04-11T05:34:46.383Z,16.28
2018-04-11T05:37:14.740Z,16.42
2018-04-11T05:39:42.350Z,16.53
2018-04-11T05:42:09.961Z,16.36
2018-04-11T05:44:39.678Z,16.08
2018-04-11T05:47:07.225Z,15.98
2018-04-11T05:49:35.044Z,16.07
2018-04-11T05:52:03.263Z,16.48
2018-04-11T05:54:30.842Z,16.84
2018-04-11T05:56:58.666Z,17.11
2018-04-11T05:59:27.307Z,17.27
2018-04-11T06:01:54.937Z,17.09
2018-04-11T06:04:22.680Z,17.16
2018-04-11T06:06:50.459Z,17.30
2018-04-11T06:09:18.225Z,17.30
2018-04-11T06:11:45.872Z,16.89
2018-04-11T06:14:13.801Z,16.83
2018-04-11T06:16:41.818Z,16.93
2018-04-11T06:19:09.374Z,17.18
2018-04-11T06:21:37.032Z,17.37
2018-04-11T06:24:04.592Z,17.60
2018-04-11T06:26:32.138Z,17.76
2018-04-11T06:28:59.848Z,17.88
2018-04-11T06:31:27.394Z,17.93
2018-04-11T06:33:55.033Z,17.66
2018-04-11T06:36:22.590Z,17.48
2018-04-11T06:38:50.660Z,17.58
2018-04-11T06:41:18.258Z,17.63
2018-04-11T06:43:46.116Z,17.70
2018-04-11T06:46:14.272Z,17.89
2018-04-11T06:48:42.334Z,18.04
2018-04-11T06:51:09.950Z,18.25
2018-04-11T06:53:37.522Z,18.37
2018-04-11T06:56:05.595Z,18.43
2018-04-11T06:58:33.418Z,18.47
2018-04-11T07:01:01.066Z,18.47
2018-04-11T07:03:28.619Z,18.55
2018-04-11T07:05:56.239Z,18.39
2018-04-11T07:08:23.894Z,18.40
2018-04-11T07:10:51.591Z,18.45
2018-04-11T07:13:19.135Z,18.55
2018-04-11T07:15:46.941Z,18.68
2018-04-11T07:18:14.763Z,18.78
2018-04-11T07:20:42.770Z,18.90
2018-04-11T07:23:10.352Z,18.89
2018-04-11T07:25:38.265Z,18.47
2018-04-11T07:28:06.064Z,18.56
2018-04-11T07:30:34.017Z,18.63
2018-04-11T07:33:01.638Z,18.52
2018-04-11T07:35:29.361Z,18.62
2018-04-11T07:37:57.065Z,18.52
2018-04-11T07:40:24.950Z,18.67
2018-04-11T07:42:52.512Z,18.68
2018-04-11T07:45:20.066Z,18.59
2018-04-11T07:47:47.871Z,18.68
2018-04-11T07:50:15.723Z,18.70
2018-04-11T07:52:43.328Z,18.75
2018-04-11T07:55:10.924Z,18.76
2018-04-11T07:57:39.548Z,18.90
2018-04-11T08:00:07.532Z,19.10
2018-04-11T08:02:35.647Z,19.13
2018-04-11T08:05:03.341Z,19.22
2018-04-11T08:07:31.094Z,19.14
2018-04-11T08:09:58.701Z,19.22
2018-04-11T08:12:26.337Z,19.47
2018-04-11T08:14:53.907Z,19.65
2018-04-11T08:17:21.746Z,19.75
2018-04-11T08:19:49.447Z,19.89
2018-04-11T08:22:17.010Z,19.78
2018-04-11T08:24:44.744Z,19.62
2018-04-11T08:27:12.312Z,19.39
2018-04-11T08:29:41.101Z,19.18
2018-04-11T08:32:09.038Z,19.10
2018-04-11T08:34:36.653Z,18.93
2018-04-11T08:37:04.286Z,19.07
2018-04-11T08:39:31.839Z,19.27
2018-04-11T08:41:59.802Z,19.48
2018-04-11T08:44:27.694Z,19.59
2018-04-11T08:46:55.445Z,19.68
2018-04-11T08:49:23.233Z,19.86
2018-04-11T08:51:50.974Z,19.71
2018-04-11T08:54:18.806Z,19.76
2018-04-11T08:56:47.472Z,19.77
2018-04-11T08:59:15.955Z,19.71
2018-04-11T09:01:43.544Z,19.78
2018-04-11T09:04:11.097Z,19.77
2018-04-11T09:06:39.363Z,19.91
2018-04-11T09:09:06.926Z,19.96
2018-04-11T09:11:34.487Z,20.16
2018-04-11T09:14:02.089Z,20.35
2018-04-11T09:16:30.025Z,20.20
2018-04-11T09:18:57.668Z,20.21
2018-04-11T09:21:25.684Z,20.37
2018-04-11T09:23:53.227Z,20.58
2018-04-11T09:26:21.222Z,20.72
2018-04-11T09:28:48.860Z,20.86
2018-04-11T09:31:16.406Z,20.96
2018-04-11T09:33:43.958Z,21.05
2018-04-11T09:36:11.645Z,21.13
2018-04-11T09:38:39.236Z,21.00
2018-04-11T09:41:06.958Z,20.89
2018-04-11T09:43:35.563Z,20.84
2018-04-11T09:46:03.122Z,20.72
2018-04-11T09:48:30.730Z,20.88
2018-04-11T09:50:58.855Z,21.07
2018-04-11T09:53:26.788Z,21.18
2018-04-11T09:55:54.356Z,21.37
2018-04-11T09:58:22.109Z,21.44
2018-04-11T10:00:53.537Z,21.51
2018-04-11T10:03:23.236Z,21.56
2018-04-11T10:05:50.872Z,21.51
2018-04-11T10:08:18.430Z,21.55
2018-04-11T10:10:46.204Z,21.62
2018-04-11T10:13:13.822Z,21.65
2018-04-11T10:15:41.374Z,21.70
2018-04-11T10:18:09.496Z,21.55
2018-04-11T10:20:37.256Z,21.58
2018-04-11T10:23:04.886Z,21.58
2018-04-11T10:25:32.439Z,21.46
2018-04-11T10:28:00.038Z,21.61
2018-04-11T10:30:27.751Z,21.66
2018-04-11T10:32:55.365Z,21.68
2018-04-11T10:35:23.184Z,21.68
2018-04-11T10:37:52.218Z,21.67
2018-04-11T10:40:19.770Z,21.80
2018-04-11T10:42:47.633Z,21.84
2018-04-11T10:45:15.819Z,21.98
2018-04-11T10:47:43.373Z,22.01
2018-04-11T10:50:10.974Z,21.99
2018-04-11T10:52:38.945Z,21.98
2018-04-11T10:55:06.602Z,22.01
2018-04-11T10:57:34.242Z,22.01
2018-04-11T11:00:02.825Z,22.00
2018-04-11T11:02:30.509Z,22.01
2018-04-11T11:04:58.061Z,21.99
2018-04-11T11:07:25.630Z,22.05
2018-04-11T11:09:53.277Z,22.05
2018-04-11T11:12:20.942Z,22.03
2018-04-11T11:14:48.494Z,22.13
2018-04-11T11:17:16.120Z,22.13
2018-04-11T11:19:55.923Z,22.10
2018-04-11T11:22:23.637Z,22.15
2018-04-11T11:24:51.190Z,22.17
2018-04-11T11:27:19.025Z,22.18
2018-04-11T11:29:47.451Z,22.08
2018-04-11T11:32:15.070Z,22.14
2018-04-11T11:34:42.652Z,22.12
2018-04-11T11:37:10.238Z,22.17
2018-04-11T11:39:37.941Z,22.14
2018-04-11T11:42:05.516Z,22.25
2018-04-11T11:44:33.193Z,22.25
2018-04-11T11:47:00.807Z,22.22
2018-04-11T11:49:28.407Z,22.20
2018-04-11T11:51:55.963Z,22.20
2018-04-11T11:54:23.621Z,22.19
2018-04-11T11:56:51.230Z,22.20
2018-04-11T11:59:18.790Z,22.20
2018-04-11T12:01:46.414Z,22.19
2018-04-11T12:04:14.037Z,22.18
2018-04-11T12:06:41.586Z,22.17
2018-04-11T12:09:09.288Z,22.16
2018-04-11T12:11:36.894Z,22.15
2018-04-11T12:14:04.466Z,22.13
2018-04-11T12:16:32.076Z,22.12
2018-04-11T12:18:59.687Z,22.17
2018-04-11T12:21:27.334Z,22.17
2018-04-11T12:23:54.953Z,22.16
2018-04-11T12:26:22.587Z,22.16
2018-04-11T12:28:50.219Z,22.25
2018-04-11T12:31:17.982Z,22.22
2018-04-11T12:33:45.543Z,22.18
2018-04-11T12:36:13.206Z,22.17
2018-04-11T12:38:41.018Z,22.16
2018-04-11T12:41:08.575Z,22.14
2018-04-11T12:43:36.172Z,22.19
2018-04-11T12:46:04.618Z,22.24
2018-04-11T12:48:32.229Z,22.23
2018-04-11T12:50:59.843Z,22.22
2018-04-11T12:53:27.508Z,22.18
2018-04-11T12:55:55.114Z,22.18
2018-04-11T12:58:22.702Z,22.19
2018-04-11T13:00:50.319Z,22.25
2018-04-11T13:03:17.974Z,22.28
2018-04-11T13:05:45.627Z,22.29
2018-04-11T13:08:13.212Z,22.29
2018-04-11T13:10:40.818Z,22.33
2018-04-11T13:13:08.440Z,22.34
2018-04-11T13:15:36.018Z,22.35
2018-04-11T13:18:03.635Z,22.33
2018-04-11T13:20:31.506Z,22.31
2018-04-11T13:22:59.127Z,22.28
2018-04-11T13:25:26.756Z,22.27
2018-04-11T13:27:54.380Z,22.23
2018-04-11T13:30:21.945Z,22.20
2018-04-11T13:32:49.958Z,22.18
2018-04-11T13:35:17.714Z,22.30
2018-04-11T13:37:46.239Z,22.28
2018-04-11T13:40:14.174Z,22.26
2018-04-11T13:42:41.744Z,22.23
2018-04-11T13:45:09.338Z,22.22
2018-04-11T13:47:36.983Z,22.21
2018-04-11T13:50:04.597Z,22.19
2018-04-11T13:52:33.245Z,22.18
2018-04-11T13:55:00.787Z,22.17
2018-04-11T13:57:28.618Z,22.15
2018-04-11T13:59:56.162Z,22.15
2018-04-11T14:02:23.758Z,22.12
2018-04-11T14:04:51.667Z,22.10
2018-04-11T14:07:20.491Z,22.07
2018-04-11T14:09:48.102Z,22.05
2018-04-11T14:12:16.450Z,22.03
2018-04-11T14:14:44.581Z,22.02
2018-04-11T14:17:12.459Z,22.01
2018-04-11T14:19:40.004Z,22.01
2018-04-11T14:22:08.365Z,22.01
2018-04-11T14:24:35.930Z,22.01
2018-04-11T14:27:04.770Z,22.00
2018-04-11T14:29:32.338Z,22.05
2018-04-11T14:31:59.885Z,22.07
2018-04-11T14:34:27.731Z,22.07
2018-04-11T14:36:55.675Z,22.06
2018-04-11T14:39:23.270Z,22.07
2018-04-11T14:41:50.865Z,22.07
2018-04-11T14:44:18.430Z,22.08
2018-04-11T14:46:46.058Z,22.07
2018-04-11T14:49:14.495Z,22.08
2018-04-11T14:51:42.066Z,22.07
2018-04-11T14:54:09.711Z,22.08
2018-04-11T14:56:37.298Z,22.08
2018-04-11T14:59:05.118Z,22.08
2018-04-11T15:01:32.936Z,22.08
2018-04-11T15:04:00.526Z,22.09
2018-04-11T15:06:28.066Z,22.10
2018-04-11T15:08:55.607Z,22.10
2018-04-11T15:11:23.297Z,22.10
2018-04-11T15:13:50.846Z,22.11
2018-04-11T15:16:19.630Z,22.12
2018-04-11T15:18:47.389Z,22.13
2018-04-11T15:21:15.537Z,22.13
2018-04-11T15:23:44.597Z,22.13
2018-04-11T15:26:12.186Z,22.13
2018-04-11T15:28:40.135Z,22.13
2018-04-11T15:31:07.740Z,22.11
2018-04-11T15:33:35.305Z,22.10
2018-04-11T15:36:03.857Z,22.08
2018-04-11T15:38:32.209Z,22.06
2018-04-11T15:41:00.041Z,22.05
2018-04-11T15:43:27.674Z,22.03
2018-04-11T15:45:55.244Z,22.01
2018-04-11T15:48:23.188Z,22.00
2018-04-11T15:50:50.789Z,22.00
2018-04-11T15:53:18.342Z,21.98
2018-04-11T15:55:46.119Z,21.96
2018-04-11T15:58:13.871Z,21.94
2018-04-11T16:00:42.563Z,21.92
2018-04-11T16:03:10.934Z,21.91
2018-04-11T16:05:38.546Z,21.89
2018-04-11T16:08:06.151Z,21.88
2018-04-11T16:10:33.822Z,21.86
2018-04-11T16:13:02.498Z,21.85
2018-04-11T16:15:30.625Z,21.82
2018-04-11T16:17:58.767Z,21.80
2018-04-11T16:20:27.132Z,21.78
2018-04-11T16:22:54.823Z,21.76
2018-04-11T16:25:22.728Z,21.75
2018-04-11T16:27:50.642Z,21.70
2018-04-11T16:30:18.188Z,21.66
2018-04-11T16:32:48.251Z,21.67
2018-04-11T16:35:16.182Z,21.65
2018-04-11T16:37:44.169Z,21.58
2018-04-11T16:40:12.316Z,21.56
2018-04-11T16:42:39.905Z,21.51
2018-04-11T16:45:07.852Z,21.39
2018-04-11T16:47:35.474Z,21.18
2018-04-11T16:50:03.437Z,21.19
2018-04-11T16:52:31.330Z,21.17
2018-04-11T16:54:59.394Z,21.11
2018-04-11T16:57:27.667Z,21.03
2018-04-11T16:59:55.217Z,21.02
2018-04-11T17:02:22.767Z,21.02
2018-04-11T17:04:51.351Z,20.96
2018-04-11T17:07:19.287Z,20.88
2018-04-11T17:09:48.021Z,20.86
2018-04-11T17:12:15.997Z,20.85
2018-04-11T17:14:43.609Z,20.81
2018-04-11T17:17:11.175Z,20.79
2018-04-11T17:19:38.750Z,20.75
2018-04-11T17:22:18.193Z,20.74
2018-04-11T17:24:57.562Z,20.74
2018-04-11T17:27:37.037Z,20.73
2018-04-11T17:30:16.742Z,20.69
2018-04-11T17:32:44.541Z,20.64
2018-04-11T17:35:12.091Z,20.65
2018-04-11T17:37:39.691Z,20.56
2018-04-11T17:40:07.274Z,20.58
2018-04-11T17:42:35.280Z,20.53
2018-04-11T17:45:04.163Z,20.50
2018-04-11T17:47:33.126Z,20.52
2018-04-11T17:50:01.334Z,20.48
2018-04-11T17:52:29.405Z,20.42
2018-04-11T17:54:57.194Z,20.10
2018-04-11T17:57:24.788Z,19.52
2018-04-11T17:59:54.034Z,19.51
2018-04-11T18:02:22.797Z,19.54
2018-04-11T18:04:50.341Z,19.47
2018-04-11T18:07:18.161Z,19.25
2018-04-11T18:09:45.873Z,19.29
2018-04-11T18:12:13.611Z,19.34
2018-04-11T18:14:41.718Z,19.34
2018-04-11T18:17:09.311Z,19.10
2018-04-11T18:19:36.989Z,19.08
2018-04-11T18:22:05.343Z,19.17
2018-04-11T18:24:32.918Z,19.24
2018-04-11T18:27:01.080Z,19.36
2018-04-11T18:29:28.630Z,19.50
2018-04-11T18:31:57.062Z,19.46
2018-04-11T18:34:25.078Z,19.35
2018-04-11T18:36:53.244Z,19.25
2018-04-11T18:39:20.839Z,19.32
2018-04-11T18:41:49.019Z,19.54
2018-04-11T18:44:16.637Z,19.71
2018-04-11T18:46:44.582Z,19.12
2018-04-11T18:49:12.138Z,18.69
2018-04-11T18:51:39.694Z,18.55
2018-04-11T18:54:07.314Z,18.58
2018-04-11T18:56:34.862Z,18.34
2018-04-11T18:59:02.475Z,18.30
2018-04-11T19:01:30.302Z,18.39
2018-04-11T19:03:59.654Z,18.46
2018-04-11T19:06:28.037Z,18.65
2018-04-11T19:08:56.125Z,18.70
2018-04-11T19:11:23.671Z,18.53
2018-04-11T19:13:51.619Z,18.29
2018-04-11T19:16:19.162Z,18.47
2018-04-11T19:18:47.517Z,18.40
2018-04-11T19:21:15.505Z,18.52
2018-04-11T19:23:43.099Z,18.45
2018-04-11T19:26:11.186Z,18.23
2018-04-11T19:28:38.986Z,18.30
2018-04-11T19:31:06.586Z,18.02
2018-04-11T19:33:34.183Z,17.78
2018-04-11T19:36:01.802Z,17.68
2018-04-11T19:38:30.034Z,17.67
2018-04-11T19:40:57.982Z,17.79
2018-04-11T19:43:25.922Z,17.58
2018-04-11T19:45:53.514Z,17.23
2018-04-11T19:48:21.914Z,17.00
2018-04-11T19:50:49.775Z,16.85
2018-04-11T19:53:17.378Z,16.73
2018-04-11T19:55:44.953Z,16.70
2018-04-11T19:58:13.488Z,16.83
2018-04-11T20:00:41.034Z,16.86
2018-04-11T20:03:09.396Z,16.98
2018-04-11T20:05:37.463Z,17.08
2018-04-11T20:08:05.381Z,17.33
2018-04-11T20:10:32.930Z,17.54
2018-04-11T20:13:00.636Z,17.69
2018-04-11T20:15:28.262Z,17.72
2018-04-11T20:17:56.035Z,17.73
2018-04-11T20:20:23.695Z,17.54
2018-04-11T20:22:51.245Z,17.45
2018-04-11T20:25:19.402Z,17.41
2018-04-11T20:27:47.260Z,17.35
2018-04-11T20:30:14.834Z,17.24
2018-04-11T20:32:42.454Z,17.23
2018-04-11T20:35:11.994Z,17.05
2018-04-11T20:37:40.869Z,17.18
2018-04-11T20:40:08.414Z,17.25
2018-04-11T20:42:37.437Z,17.58
2018-04-11T20:45:05.053Z,17.80
2018-04-11T20:47:32.956Z,17.18
2018-04-11T20:50:01.344Z,16.73
2018-04-11T20:52:29.609Z,16.58
2018-04-11T20:54:57.747Z,16.54
2018-04-11T20:57:26.226Z,16.51
2018-04-11T20:59:55.035Z,16.43
2018-04-11T21:02:22.947Z,16.34
2018-04-11T21:04:50.820Z,16.48
2018-04-11T21:07:18.362Z,16.42
2018-04-11T21:09:46.598Z,16.40
2018-04-11T21:12:14.137Z,16.34
2018-04-11T21:14:41.724Z,16.41
2018-04-11T21:17:09.793Z,16.76
2018-04-11T21:19:37.384Z,16.99
2018-04-11T21:22:04.926Z,17.25
2018-04-11T21:24:33.001Z,17.47
2018-04-11T21:27:00.984Z,17.65
2018-04-11T21:29:29.261Z,17.73
2018-04-11T21:31:57.428Z,17.77
2018-04-11T21:34:25.121Z,17.82
2018-04-11T21:36:53.167Z,17.69
2018-04-11T21:39:20.714Z,17.20
2018-04-11T21:41:48.579Z,16.64
2018-04-11T21:44:16.620Z,16.38
2018-04-11T21:46:44.841Z,16.53
2018-04-11T21:49:12.394Z,16.52
2018-04-11T21:51:39.978Z,16.52
2018-04-11T21:54:08.133Z,16.47
2018-04-11T21:56:36.073Z,16.81
2018-04-11T21:59:04.340Z,16.95
2018-04-11T22:01:31.898Z,17.20
2018-04-11T22:03:59.805Z,17.38
2018-04-11T22:06:27.636Z,17.46
2018-04-11T22:08:55.181Z,17.32
2018-04-11T22:11:22.800Z,17.08
2018-04-11T22:13:50.555Z,17.05
2018-04-11T22:16:18.118Z,16.70
2018-04-11T22:18:45.726Z,16.53
2018-04-11T22:21:13.287Z,16.57
2018-04-11T22:23:40.853Z,16.47
2018-04-11T22:26:08.446Z,16.31
2018-04-11T22:28:36.042Z,16.27
2018-04-11T22:31:03.588Z,16.18
2018-04-11T22:33:31.510Z,15.93
2018-04-11T22:35:59.109Z,15.63
2018-04-11T22:38:27.092Z,15.51
2018-04-11T22:40:54.639Z,15.81
2018-04-11T22:43:22.242Z,15.58
2018-04-11T22:45:50.064Z,15.48
2018-04-11T22:48:17.651Z,15.48
2018-04-11T22:50:45.484Z,15.79
2018-04-11T22:53:13.025Z,16.20
2018-04-11T22:55:41.029Z,16.09
2018-04-11T22:58:08.968Z,15.96
2018-04-11T23:00:36.510Z,16.10
2018-04-11T23:03:04.109Z,15.51
2018-04-11T23:05:31.659Z,15.16
2018-04-11T23:07:59.286Z,15.10
2018-04-11T23:10:27.073Z,15.06
2018-04-11T23:12:54.637Z,15.23
2018-04-11T23:15:22.259Z,15.41
2018-04-11T23:17:49.886Z,15.38
2018-04-11T23:20:17.454Z,15.30
2018-04-11T23:22:45.250Z,15.08
2018-04-11T23:25:13.806Z,14.95
2018-04-11T23:27:41.353Z,14.93
2018-04-11T23:30:08.938Z,14.87
2018-04-11T23:32:36.490Z,15.16
2018-04-11T23:35:04.108Z,15.63
2018-04-11T23:37:32.087Z,16.07
2018-04-11T23:40:00.061Z,16.38
2018-04-11T23:42:28.027Z,16.11
2018-04-11T23:44:55.576Z,15.98
2018-04-11T23:47:23.165Z,15.63
2018-04-11T23:49:50.750Z,15.79
2018-04-11T23:52:18.289Z,16.19
2018-04-11T23:54:45.878Z,16.47
2018-04-11T23:57:13.481Z,16.27
2018-04-11T23:59:41.661Z,16.24
